Saint Eleanors, Canada
Current Conditions -  °F | °C
As of 12:00 AM on Wednesday 26 Nov 2014 (Local Time) from CYYG Reporting Station
Scattered Clouds Scattered Clouds  
Wind Chill: 41°   Ceiling: Unl
Heat Index: 46°   Visibility: 15mi
Dew Point: 32°   Wind: 10mph
Humidity: 57%   Direction: 270°W
Pressure: 29.9"   Gusts: 17mph
Location:  46.42°N, 63.82°W
Report Text: CYYG 260400Z 27009G15KT 15SM SCT050 SCT250 08/M00 A2990 RMK SC3CI1 SLP127
Loading
Personal Weather Stations






























Interactive Weather Map New forecast layout! Learn more

10-Day Weather Forecast

Advertisements
Track Severe Weather on mobile